createdAt,value
2022-12-05T00:02:17.850Z,9.25
2022-12-05T00:07:24.139Z,8.38
2022-12-05T00:12:30.677Z,8.80
2022-12-05T00:17:38.650Z,7.68
2022-12-05T00:22:45.131Z,7.60
2022-12-05T00:27:51.510Z,7.88
2022-12-05T00:32:59.969Z,6.40
2022-12-05T00:38:06.339Z,7.50
2022-12-05T00:43:12.561Z,7.80
2022-12-05T00:48:20.148Z,7.70
2022-12-05T00:53:26.311Z,8.50
2022-12-05T00:58:33.734Z,8.70
2022-12-05T01:03:41.840Z,7.28
2022-12-05T01:08:48.624Z,8.23
2022-12-05T01:13:55.655Z,8.15
2022-12-05T01:19:08.497Z,7.75
2022-12-05T01:24:15.208Z,8.45
2022-12-05T01:29:23.404Z,8.52
2022-12-05T01:34:31.448Z,8.20
2022-12-05T01:39:37.776Z,7.83
2022-12-05T01:45:08.893Z,7.20
2022-12-05T01:50:16.837Z,8.73
2022-12-05T01:55:23.468Z,6.88
2022-12-05T02:00:30.226Z,8.02
2022-12-05T02:05:39.691Z,9.43
2022-12-05T02:10:50.517Z,7.70
2022-12-05T02:16:05.110Z,8.75
2022-12-05T02:22:10.947Z,7.75
2022-12-05T02:27:45.939Z,7.18
2022-12-05T02:33:12.388Z,7.88
2022-12-05T02:38:27.944Z,8.07
2022-12-05T02:43:41.438Z,7.47
2022-12-05T02:48:51.707Z,8.27
2022-12-05T02:54:02.781Z,7.55
2022-12-05T02:59:09.131Z,8.45
2022-12-05T03:04:18.680Z,7.63
2022-12-05T03:09:30.785Z,9.00
2022-12-05T03:14:46.166Z,8.07
2022-12-05T03:20:00.078Z,7.78
2022-12-05T03:25:08.118Z,7.57
2022-12-05T03:30:18.883Z,7.53
2022-12-05T03:35:33.731Z,7.43
2022-12-05T03:40:47.133Z,7.95
2022-12-05T03:46:02.265Z,7.97
2022-12-05T03:51:14.037Z,7.80
2022-12-05T03:56:26.751Z,7.82
2022-12-05T04:01:35.433Z,7.28
2022-12-05T04:06:47.368Z,7.03
2022-12-05T04:12:00.193Z,8.18
2022-12-05T04:17:12.638Z,7.35
2022-12-05T04:22:21.166Z,7.47
2022-12-05T04:27:36.953Z,7.37
2022-12-05T04:32:47.975Z,7.20
2022-12-05T04:38:03.840Z,9.35
2022-12-05T04:43:14.112Z,7.50
2022-12-05T04:48:21.322Z,6.85
2022-12-05T04:53:33.048Z,6.53
2022-12-05T04:58:39.416Z,7.63
2022-12-05T05:03:51.935Z,7.45
2022-12-05T05:09:00.792Z,6.78
2022-12-05T05:14:07.415Z,6.53
2022-12-05T05:19:14.143Z,6.25
2022-12-05T05:24:23.886Z,7.22
2022-12-05T05:29:30.156Z,6.53
2022-12-05T05:34:36.798Z,6.40
2022-12-05T05:39:44.723Z,5.50
2022-12-05T05:44:51.068Z,7.10
2022-12-05T05:49:57.640Z,5.95
2022-12-05T05:55:07.710Z,6.40
2022-12-05T06:00:16.310Z,7.28
2022-12-05T06:05:22.604Z,7.45
2022-12-05T06:10:31.376Z,7.18
2022-12-05T06:15:39.647Z,7.00
2022-12-05T06:20:54.966Z,7.25
2022-12-05T06:26:03.154Z,7.43
2022-12-05T06:31:11.470Z,5.83
2022-12-05T06:36:20.873Z,6.87
2022-12-05T06:41:29.551Z,6.75
2022-12-05T06:46:35.798Z,6.60
2022-12-05T06:51:42.177Z,7.13
2022-12-05T06:56:50.095Z,6.40
2022-12-05T07:01:56.432Z,7.03
2022-12-05T07:07:03.264Z,8.05
2022-12-05T07:12:11.372Z,6.85
2022-12-05T07:17:17.987Z,7.75
2022-12-05T07:22:25.681Z,7.35
2022-12-05T07:27:34.502Z,7.93
2022-12-05T07:32:40.975Z,10.30
2022-12-05T07:37:47.352Z,10.52
2022-12-05T07:42:54.957Z,8.90
2022-12-05T07:48:01.295Z,8.63
2022-12-05T07:53:07.483Z,8.88
2022-12-05T07:58:15.145Z,7.68
2022-12-05T08:03:21.365Z,8.50
2022-12-05T08:08:27.715Z,7.88
2022-12-05T08:13:35.728Z,7.13
2022-12-05T08:18:42.193Z,8.27
2022-12-05T08:23:48.990Z,8.45
2022-12-05T08:29:00.815Z,7.90
2022-12-05T08:34:07.300Z,8.13
2022-12-05T08:39:16.792Z,7.43
2022-12-05T08:44:25.515Z,8.63
2022-12-05T08:49:31.876Z,6.90
2022-12-05T08:54:38.127Z,7.72
2022-12-05T08:59:45.774Z,8.65
2022-12-05T09:04:54.183Z,8.45
2022-12-05T09:10:00.890Z,8.27
2022-12-05T09:15:12.126Z,7.18
2022-12-05T09:20:18.900Z,8.18
2022-12-05T09:25:25.270Z,8.80
2022-12-05T09:30:32.773Z,8.63
2022-12-05T09:35:42.117Z,8.95
2022-12-05T09:40:50.403Z,9.43
2022-12-05T09:46:06.239Z,8.35
2022-12-05T09:51:14.180Z,8.77
2022-12-05T09:56:28.595Z,8.57
2022-12-05T10:01:43.015Z,8.15
2022-12-05T10:07:01.619Z,9.20
2022-12-05T10:12:21.916Z,8.55
2022-12-05T10:17:35.873Z,9.90
2022-12-05T10:22:49.398Z,9.15
2022-12-05T10:28:00.667Z,9.65
2022-12-05T10:33:19.902Z,9.48
2022-12-05T10:38:29.542Z,8.90
2022-12-05T10:43:43.838Z,9.57
2022-12-05T10:48:51.535Z,9.10
2022-12-05T10:53:58.310Z,9.10
2022-12-05T10:59:05.036Z,9.50
2022-12-05T11:04:30.873Z,9.85
2022-12-05T11:09:39.714Z,8.73
2022-12-05T11:15:05.839Z,8.75
2022-12-05T11:20:41.623Z,11.32
2022-12-05T11:25:48.061Z,9.95
2022-12-05T11:31:01.376Z,10.27
2022-12-05T11:36:23.799Z,10.88
2022-12-05T11:41:50.737Z,8.93
2022-12-05T11:47:08.125Z,9.88
2022-12-05T11:52:29.847Z,8.68
2022-12-05T11:58:07.284Z,11.77
2022-12-05T12:03:46.675Z,10.23
2022-12-05T12:09:17.420Z,10.70
2022-12-05T12:14:34.781Z,11.02
2022-12-05T12:20:12.862Z,11.52
2022-12-05T12:25:33.417Z,10.20
2022-12-05T12:31:02.078Z,12.55
2022-12-05T12:36:19.863Z,16.48
2022-12-05T12:41:58.115Z,11.40
2022-12-05T12:47:06.234Z,10.30
2022-12-05T12:52:17.525Z,13.67
2022-12-05T12:57:33.124Z,17.60
2022-12-05T13:02:48.250Z,16.98
2022-12-05T13:07:59.895Z,22.98
2022-12-05T13:13:11.937Z,19.02
2022-12-05T13:18:21.144Z,15.38
2022-12-05T13:28:45.463Z,15.00
2022-12-05T13:33:53.038Z,16.20
2022-12-05T13:39:22.963Z,14.52
2022-12-05T13:44:37.718Z,13.60
2022-12-05T13:49:50.356Z,15.38
2022-12-05T13:55:02.647Z,15.63
2022-12-05T14:00:34.518Z,14.05
2022-12-05T14:05:53.699Z,14.60
2022-12-05T14:11:13.385Z,15.75
2022-12-05T14:16:51.528Z,14.88
2022-12-05T14:22:15.797Z,12.77
2022-12-05T14:27:45.062Z,13.50
2022-12-05T14:32:54.401Z,14.88
2022-12-05T14:38:05.832Z,14.95
2022-12-05T14:43:23.499Z,15.65
2022-12-05T14:48:35.194Z,14.23
2022-12-05T14:53:45.157Z,16.08
2022-12-05T14:58:59.765Z,16.95
2022-12-05T15:04:16.351Z,16.20
2022-12-05T15:09:43.822Z,15.93
2022-12-05T15:15:09.631Z,17.02
2022-12-05T15:20:40.285Z,18.08
2022-12-05T15:25:47.771Z,15.73
2022-12-05T15:30:59.116Z,14.93
2022-12-05T15:36:09.020Z,21.90
2022-12-05T15:41:19.933Z,18.95
2022-12-05T15:46:28.426Z,18.73
2022-12-05T15:51:39.766Z,18.40
2022-12-05T15:56:52.180Z,19.65
2022-12-05T16:02:05.251Z,18.88
2022-12-05T16:07:15.535Z,16.77
2022-12-05T16:12:28.860Z,16.50
2022-12-05T16:17:44.509Z,14.90
2022-12-05T16:22:55.569Z,18.20
2022-12-05T16:28:18.942Z,18.13
2022-12-05T16:33:25.620Z,15.23
2022-12-05T16:38:34.770Z,16.35
2022-12-05T16:43:48.239Z,15.30
2022-12-05T16:49:21.118Z,16.17
2022-12-05T16:54:29.208Z,19.45
2022-12-05T16:59:38.330Z,24.53
2022-12-05T17:09:52.487Z,18.35
2022-12-05T17:15:00.626Z,17.60
2022-12-05T17:20:09.220Z,17.57
2022-12-05T17:25:28.704Z,22.05
2022-12-05T17:35:43.041Z,24.75
2022-12-05T17:40:54.976Z,19.20
2022-12-05T17:46:02.901Z,20.48
2022-12-05T17:51:13.505Z,13.65
2022-12-05T17:56:21.969Z,20.27
2022-12-05T18:01:28.645Z,18.02
2022-12-05T18:06:35.782Z,21.00
2022-12-05T18:11:43.590Z,21.67
2022-12-05T18:16:50.288Z,22.17
2022-12-05T18:21:57.556Z,20.58
2022-12-05T18:27:06.119Z,19.73
2022-12-05T18:32:13.048Z,19.10
2022-12-05T18:37:19.916Z,17.38
2022-12-05T18:42:28.852Z,21.02
2022-12-05T18:47:36.315Z,21.40
2022-12-05T18:52:43.393Z,21.17
2022-12-05T18:57:53.789Z,18.30
2022-12-05T19:03:07.954Z,18.17
2022-12-05T19:08:17.715Z,19.25
2022-12-05T19:13:27.270Z,20.33
2022-12-05T19:23:41.408Z,17.70
2022-12-05T19:28:50.562Z,17.13
2022-12-05T19:34:01.386Z,17.58
2022-12-05T19:39:13.736Z,20.65
2022-12-05T19:44:23.233Z,19.85
2022-12-05T19:49:30.628Z,19.23
2022-12-05T19:54:37.495Z,17.98
2022-12-05T19:59:47.396Z,16.77
2022-12-05T20:04:54.163Z,16.83
2022-12-05T20:10:02.854Z,16.88
2022-12-05T20:15:12.280Z,16.92
2022-12-05T20:20:20.622Z,15.25
2022-12-05T20:25:28.016Z,15.93
2022-12-05T20:35:46.443Z,17.08
2022-12-05T20:40:54.408Z,15.95
2022-12-05T20:46:08.477Z,15.82
2022-12-05T20:51:18.342Z,17.65
2022-12-05T20:56:29.000Z,14.90
2022-12-05T21:06:46.332Z,16.08
2022-12-05T21:11:52.938Z,14.98
2022-12-05T21:17:01.076Z,15.23
2022-12-05T21:22:07.458Z,17.02
2022-12-05T21:27:14.129Z,16.42
2022-12-05T21:32:21.939Z,16.10
2022-12-05T21:37:28.213Z,16.27
2022-12-05T21:42:34.840Z,17.17
2022-12-05T21:47:42.525Z,18.33
2022-12-05T21:52:48.821Z,17.17
2022-12-05T21:57:56.000Z,16.20
2022-12-05T22:03:04.009Z,19.27
2022-12-05T22:08:10.541Z,17.23
2022-12-05T22:13:17.143Z,17.25
2022-12-05T22:18:25.066Z,16.35
2022-12-05T22:23:31.957Z,16.65
2022-12-05T22:28:39.206Z,18.38
2022-12-05T22:33:47.946Z,17.90
2022-12-05T22:38:54.404Z,17.55
2022-12-05T22:44:02.015Z,16.35
2022-12-05T22:49:12.134Z,17.63
2022-12-05T22:54:18.714Z,15.23
2022-12-05T22:59:24.992Z,15.65
2022-12-05T23:04:32.828Z,17.15
2022-12-05T23:09:39.321Z,18.70
2022-12-05T23:14:45.965Z,16.95
2022-12-05T23:19:54.108Z,14.82
2022-12-05T23:25:00.258Z,14.07
2022-12-05T23:30:08.346Z,14.88
2022-12-05T23:35:16.449Z,13.87
2022-12-05T23:40:22.858Z,13.88
2022-12-05T23:45:29.356Z,15.02
2022-12-05T23:50:37.125Z,14.63
2022-12-05T23:55:43.517Z,15.38
